sensor_id;sensor_type;location;lat;lon;timestamp;P1;durP1;ratioP1;P2;durP2;ratioP2
11797;SDS011;5956;51.428;6.682;2022-10-16T00:00:38;4.37;;;2.93;;
11797;SDS011;5956;51.428;6.682;2022-10-16T00:03:07;4.00;;;3.10;;
11797;SDS011;5956;51.428;6.682;2022-10-16T00:05:39;5.80;;;2.83;;
11797;SDS011;5956;51.428;6.682;2022-10-16T00:08:07;3.47;;;3.17;;
11797;SDS011;5956;51.428;6.682;2022-10-16T00:10:34;5.07;;;3.10;;
11797;SDS011;5956;51.428;6.682;2022-10-16T00:13:03;7.20;;;3.70;;
11797;SDS011;5956;51.428;6.682;2022-10-16T00:15:29;3.57;;;3.20;;
11797;SDS011;5956;51.428;6.682;2022-10-16T00:17:57;4.13;;;3.40;;
11797;SDS011;5956;51.428;6.682;2022-10-16T00:20:23;5.13;;;3.00;;
11797;SDS011;5956;51.428;6.682;2022-10-16T00:22:52;3.70;;;3.40;;
11797;SDS011;5956;51.428;6.682;2022-10-16T00:25:20;4.23;;;3.30;;
11797;SDS011;5956;51.428;6.682;2022-10-16T00:27:47;6.40;;;3.57;;
11797;SDS011;5956;51.428;6.682;2022-10-16T00:30:14;4.17;;;3.53;;
11797;SDS011;5956;51.428;6.682;2022-10-16T00:32:40;6.97;;;3.13;;
11797;SDS011;5956;51.428;6.682;2022-10-16T00:35:07;5.57;;;3.07;;
11797;SDS011;5956;51.428;6.682;2022-10-16T00:37:34;3.70;;;3.40;;
11797;SDS011;5956;51.428;6.682;2022-10-16T00:40:03;5.07;;;2.87;;
11797;SDS011;5956;51.428;6.682;2022-10-16T00:42:30;4.30;;;3.17;;
11797;SDS011;5956;51.428;6.682;2022-10-16T00:44:57;3.53;;;3.03;;
11797;SDS011;5956;51.428;6.682;2022-10-16T00:47:25;6.23;;;3.70;;
11797;SDS011;5956;51.428;6.682;2022-10-16T00:49:56;3.73;;;2.87;;
11797;SDS011;5956;51.428;6.682;2022-10-16T00:52:26;6.57;;;3.27;;
11797;SDS011;5956;51.428;6.682;2022-10-16T00:54:53;5.57;;;3.03;;
11797;SDS011;5956;51.428;6.682;2022-10-16T00:57:22;5.47;;;2.90;;
11797;SDS011;5956;51.428;6.682;2022-10-16T00:59:49;6.17;;;3.47;;
11797;SDS011;5956;51.428;6.682;2022-10-16T01:02:16;3.40;;;2.77;;
11797;SDS011;5956;51.428;6.682;2022-10-16T01:04:43;4.77;;;2.67;;
11797;SDS011;5956;51.428;6.682;2022-10-16T01:07:14;4.47;;;2.83;;
11797;SDS011;5956;51.428;6.682;2022-10-16T01:09:51;3.03;;;2.73;;
11797;SDS011;5956;51.428;6.682;2022-10-16T01:12:29;4.47;;;2.67;;
11797;SDS011;5956;51.428;6.682;2022-10-16T01:15:02;3.33;;;3.03;;
11797;SDS011;5956;51.428;6.682;2022-10-16T01:17:33;3.57;;;2.27;;
11797;SDS011;5956;51.428;6.682;2022-10-16T01:20:06;5.43;;;2.97;;
11797;SDS011;5956;51.428;6.682;2022-10-16T01:22:43;4.63;;;2.70;;
11797;SDS011;5956;51.428;6.682;2022-10-16T01:25:17;4.73;;;2.60;;
11797;SDS011;5956;51.428;6.682;2022-10-16T01:27:48;6.70;;;2.57;;
11797;SDS011;5956;51.428;6.682;2022-10-16T01:30:16;4.60;;;2.70;;
11797;SDS011;5956;51.428;6.682;2022-10-16T01:32:47;4.47;;;2.30;;
11797;SDS011;5956;51.428;6.682;2022-10-16T01:35:18;3.60;;;2.87;;
11797;SDS011;5956;51.428;6.682;2022-10-16T01:37:48;6.33;;;3.00;;
11797;SDS011;5956;51.428;6.682;2022-10-16T01:40:19;5.27;;;2.80;;
11797;SDS011;5956;51.428;6.682;2022-10-16T01:42:48;3.43;;;2.37;;
11797;SDS011;5956;51.428;6.682;2022-10-16T01:45:20;3.13;;;2.83;;
11797;SDS011;5956;51.428;6.682;2022-10-16T01:47:47;3.50;;;2.43;;
11797;SDS011;5956;51.428;6.682;2022-10-16T01:50:16;3.20;;;2.70;;
11797;SDS011;5956;51.428;6.682;2022-10-16T01:52:45;4.07;;;2.70;;
11797;SDS011;5956;51.428;6.682;2022-10-16T01:55:16;4.87;;;2.57;;
11797;SDS011;5956;51.428;6.682;2022-10-16T01:57:46;4.63;;;2.67;;
11797;SDS011;5956;51.428;6.682;2022-10-16T02:00:16;4.73;;;2.67;;
11797;SDS011;5956;51.428;6.682;2022-10-16T02:02:44;3.73;;;2.83;;
11797;SDS011;5956;51.428;6.682;2022-10-16T02:05:15;2.70;;;2.50;;
11797;SDS011;5956;51.428;6.682;2022-10-16T02:07:44;4.23;;;2.70;;
11797;SDS011;5956;51.428;6.682;2022-10-16T02:10:11;3.67;;;2.50;;
11797;SDS011;5956;51.428;6.682;2022-10-16T02:12:38;4.30;;;2.67;;
11797;SDS011;5956;51.428;6.682;2022-10-16T02:15:07;3.47;;;2.20;;
11797;SDS011;5956;51.428;6.682;2022-10-16T02:17:36;3.03;;;2.10;;
11797;SDS011;5956;51.428;6.682;2022-10-16T02:20:03;2.00;;;1.90;;
11797;SDS011;5956;51.428;6.682;2022-10-16T02:22:32;5.13;;;2.20;;
11797;SDS011;5956;51.428;6.682;2022-10-16T02:25:03;1.97;;;1.77;;
11797;SDS011;5956;51.428;6.682;2022-10-16T02:27:33;2.40;;;2.17;;
11797;SDS011;5956;51.428;6.682;2022-10-16T02:30:03;4.37;;;2.43;;
11797;SDS011;5956;51.428;6.682;2022-10-16T02:32:34;4.20;;;2.20;;
11797;SDS011;5956;51.428;6.682;2022-10-16T02:35:04;4.93;;;2.43;;
11797;SDS011;5956;51.428;6.682;2022-10-16T02:37:33;1.83;;;1.70;;
11797;SDS011;5956;51.428;6.682;2022-10-16T02:39:59;2.50;;;2.00;;
11797;SDS011;5956;51.428;6.682;2022-10-16T02:42:28;2.30;;;2.10;;
11797;SDS011;5956;51.428;6.682;2022-10-16T02:44:56;1.80;;;1.70;;
11797;SDS011;5956;51.428;6.682;2022-10-16T02:47:22;3.87;;;1.90;;
11797;SDS011;5956;51.428;6.682;2022-10-16T02:49:51;2.10;;;1.97;;
11797;SDS011;5956;51.428;6.682;2022-10-16T02:52:17;2.00;;;1.70;;
11797;SDS011;5956;51.428;6.682;2022-10-16T02:54:44;3.83;;;1.97;;
11797;SDS011;5956;51.428;6.682;2022-10-16T02:57:11;4.97;;;1.93;;
11797;SDS011;5956;51.428;6.682;2022-10-16T02:59:38;4.33;;;1.90;;
11797;SDS011;5956;51.428;6.682;2022-10-16T03:02:05;2.60;;;2.20;;
11797;SDS011;5956;51.428;6.682;2022-10-16T03:04:31;2.30;;;2.10;;
11797;SDS011;5956;51.428;6.682;2022-10-16T03:07:00;5.57;;;2.30;;
11797;SDS011;5956;51.428;6.682;2022-10-16T03:09:26;2.43;;;1.83;;
11797;SDS011;5956;51.428;6.682;2022-10-16T03:11:53;3.60;;;2.20;;
11797;SDS011;5956;51.428;6.682;2022-10-16T03:14:20;2.27;;;2.07;;
11797;SDS011;5956;51.428;6.682;2022-10-16T03:16:47;3.30;;;2.23;;
11797;SDS011;5956;51.428;6.682;2022-10-16T03:19:13;4.10;;;2.20;;
11797;SDS011;5956;51.428;6.682;2022-10-16T03:21:42;3.27;;;1.70;;
11797;SDS011;5956;51.428;6.682;2022-10-16T03:24:10;3.80;;;1.50;;
11797;SDS011;5956;51.428;6.682;2022-10-16T03:26:37;2.07;;;1.83;;
11797;SDS011;5956;51.428;6.682;2022-10-16T03:29:04;4.53;;;1.70;;
11797;SDS011;5956;51.428;6.682;2022-10-16T03:31:31;1.90;;;1.80;;
11797;SDS011;5956;51.428;6.682;2022-10-16T03:33:58;2.67;;;1.60;;
11797;SDS011;5956;51.428;6.682;2022-10-16T03:36:24;3.53;;;1.70;;
11797;SDS011;5956;51.428;6.682;2022-10-16T03:38:51;2.80;;;1.60;;
11797;SDS011;5956;51.428;6.682;2022-10-16T03:41:19;5.10;;;1.53;;
11797;SDS011;5956;51.428;6.682;2022-10-16T03:43:46;1.90;;;1.67;;
11797;SDS011;5956;51.428;6.682;2022-10-16T03:46:13;1.80;;;1.70;;
11797;SDS011;5956;51.428;6.682;2022-10-16T03:48:40;3.50;;;1.77;;
11797;SDS011;5956;51.428;6.682;2022-10-16T03:51:06;5.17;;;1.60;;
11797;SDS011;5956;51.428;6.682;2022-10-16T03:53:33;3.60;;;1.63;;
11797;SDS011;5956;51.428;6.682;2022-10-16T03:56:00;3.10;;;1.60;;
11797;SDS011;5956;51.428;6.682;2022-10-16T03:58:28;1.50;;;1.30;;
11797;SDS011;5956;51.428;6.682;2022-10-16T04:00:55;1.80;;;1.67;;
11797;SDS011;5956;51.428;6.682;2022-10-16T04:03:22;2.80;;;1.70;;
11797;SDS011;5956;51.428;6.682;2022-10-16T04:05:48;1.73;;;1.43;;
11797;SDS011;5956;51.428;6.682;2022-10-16T04:08:15;2.47;;;1.30;;
11797;SDS011;5956;51.428;6.682;2022-10-16T04:10:43;2.03;;;1.40;;
11797;SDS011;5956;51.428;6.682;2022-10-16T04:13:10;4.30;;;1.57;;
11797;SDS011;5956;51.428;6.682;2022-10-16T04:15:38;1.63;;;1.53;;
11797;SDS011;5956;51.428;6.682;2022-10-16T04:18:05;1.50;;;1.30;;
11797;SDS011;5956;51.428;6.682;2022-10-16T04:20:32;1.70;;;1.60;;
11797;SDS011;5956;51.428;6.682;2022-10-16T04:22:59;2.73;;;1.57;;
11797;SDS011;5956;51.428;6.682;2022-10-16T04:25:26;4.73;;;1.60;;
11797;SDS011;5956;51.428;6.682;2022-10-16T04:27:53;3.60;;;1.50;;
11797;SDS011;5956;51.428;6.682;2022-10-16T04:30:20;1.67;;;1.37;;
11797;SDS011;5956;51.428;6.682;2022-10-16T04:32:49;1.80;;;1.30;;
11797;SDS011;5956;51.428;6.682;2022-10-16T04:35:16;3.37;;;1.40;;
11797;SDS011;5956;51.428;6.682;2022-10-16T04:37:43;1.90;;;1.70;;
11797;SDS011;5956;51.428;6.682;2022-10-16T04:40:09;2.73;;;1.60;;
11797;SDS011;5956;51.428;6.682;2022-10-16T04:42:36;4.87;;;1.70;;
11797;SDS011;5956;51.428;6.682;2022-10-16T04:45:03;1.70;;;1.60;;
11797;SDS011;5956;51.428;6.682;2022-10-16T04:47:31;4.27;;;1.77;;
11797;SDS011;5956;51.428;6.682;2022-10-16T04:49:59;3.10;;;2.80;;
11797;SDS011;5956;51.428;6.682;2022-10-16T04:52:27;3.93;;;2.87;;
11797;SDS011;5956;51.428;6.682;2022-10-16T04:54:54;8.87;;;3.10;;
11797;SDS011;5956;51.428;6.682;2022-10-16T04:57:25;3.97;;;2.03;;
11797;SDS011;5956;51.428;6.682;2022-10-16T04:59:52;4.40;;;1.80;;
11797;SDS011;5956;51.428;6.682;2022-10-16T05:02:19;2.10;;;1.80;;
11797;SDS011;5956;51.428;6.682;2022-10-16T05:04:45;3.50;;;1.90;;
11797;SDS011;5956;51.428;6.682;2022-10-16T05:07:14;3.20;;;1.83;;
11797;SDS011;5956;51.428;6.682;2022-10-16T05:09:40;1.63;;;1.53;;
11797;SDS011;5956;51.428;6.682;2022-10-16T05:12:07;1.80;;;1.70;;
11797;SDS011;5956;51.428;6.682;2022-10-16T05:14:34;1.63;;;1.53;;
11797;SDS011;5956;51.428;6.682;2022-10-16T05:17:01;3.37;;;2.07;;
11797;SDS011;5956;51.428;6.682;2022-10-16T05:19:28;1.83;;;1.73;;
11797;SDS011;5956;51.428;6.682;2022-10-16T05:21:54;2.37;;;1.67;;
11797;SDS011;5956;51.428;6.682;2022-10-16T05:24:23;3.60;;;2.03;;
11797;SDS011;5956;51.428;6.682;2022-10-16T05:26:50;3.07;;;1.80;;
11797;SDS011;5956;51.428;6.682;2022-10-16T05:29:17;2.53;;;2.30;;
11797;SDS011;5956;51.428;6.682;2022-10-16T05:31:43;2.50;;;1.70;;
11797;SDS011;5956;51.428;6.682;2022-10-16T05:34:10;2.13;;;1.87;;
11797;SDS011;5956;51.428;6.682;2022-10-16T05:36:37;3.67;;;1.60;;
11797;SDS011;5956;51.428;6.682;2022-10-16T05:39:04;2.10;;;1.90;;
11797;SDS011;5956;51.428;6.682;2022-10-16T05:41:32;2.83;;;2.20;;
11797;SDS011;5956;51.428;6.682;2022-10-16T05:43:59;5.77;;;2.00;;
11797;SDS011;5956;51.428;6.682;2022-10-16T05:46:26;2.77;;;1.97;;
11797;SDS011;5956;51.428;6.682;2022-10-16T05:48:52;2.37;;;2.10;;
11797;SDS011;5956;51.428;6.682;2022-10-16T05:51:19;2.00;;;1.90;;
11797;SDS011;5956;51.428;6.682;2022-10-16T05:53:46;2.70;;;1.90;;
11797;SDS011;5956;51.428;6.682;2022-10-16T05:56:13;2.40;;;2.00;;
11797;SDS011;5956;51.428;6.682;2022-10-16T05:58:41;4.47;;;2.37;;
11797;SDS011;5956;51.428;6.682;2022-10-16T06:01:09;2.90;;;2.40;;
11797;SDS011;5956;51.428;6.682;2022-10-16T06:03:38;4.60;;;2.57;;
11797;SDS011;5956;51.428;6.682;2022-10-16T06:06:08;2.70;;;2.27;;
11797;SDS011;5956;51.428;6.682;2022-10-16T06:08:35;3.97;;;2.27;;
11797;SDS011;5956;51.428;6.682;2022-10-16T06:11:03;3.27;;;2.30;;
11797;SDS011;5956;51.428;6.682;2022-10-16T06:13:30;4.57;;;2.47;;
11797;SDS011;5956;51.428;6.682;2022-10-16T06:15:59;2.43;;;2.23;;
11797;SDS011;5956;51.428;6.682;2022-10-16T06:18:26;3.53;;;2.07;;
11797;SDS011;5956;51.428;6.682;2022-10-16T06:20:54;2.63;;;2.27;;
11797;SDS011;5956;51.428;6.682;2022-10-16T06:23:21;4.23;;;2.27;;
11797;SDS011;5956;51.428;6.682;2022-10-16T06:25:48;2.40;;;2.20;;
11797;SDS011;5956;51.428;6.682;2022-10-16T06:28:15;5.27;;;2.47;;
11797;SDS011;5956;51.428;6.682;2022-10-16T06:30:42;3.07;;;2.10;;
11797;SDS011;5956;51.428;6.682;2022-10-16T06:33:10;4.63;;;2.37;;
11797;SDS011;5956;51.428;6.682;2022-10-16T06:35:37;4.37;;;2.90;;
11797;SDS011;5956;51.428;6.682;2022-10-16T06:38:04;2.60;;;2.40;;
11797;SDS011;5956;51.428;6.682;2022-10-16T06:40:31;5.83;;;2.47;;
11797;SDS011;5956;51.428;6.682;2022-10-16T06:42:58;3.63;;;2.70;;
11797;SDS011;5956;51.428;6.682;2022-10-16T06:45:24;4.70;;;3.00;;
11797;SDS011;5956;51.428;6.682;2022-10-16T06:47:51;3.30;;;2.90;;
11797;SDS011;5956;51.428;6.682;2022-10-16T06:50:19;3.00;;;2.80;;
11797;SDS011;5956;51.428;6.682;2022-10-16T06:52:46;4.90;;;3.17;;
11797;SDS011;5956;51.428;6.682;2022-10-16T06:55:13;5.70;;;3.73;;
11797;SDS011;5956;51.428;6.682;2022-10-16T06:57:42;3.83;;;3.20;;
11797;SDS011;5956;51.428;6.682;2022-10-16T07:00:09;4.57;;;2.90;;
11797;SDS011;5956;51.428;6.682;2022-10-16T07:02:36;4.90;;;2.60;;
11797;SDS011;5956;51.428;6.682;2022-10-16T07:05:03;2.83;;;2.63;;
11797;SDS011;5956;51.428;6.682;2022-10-16T07:07:31;1.60;;;1.50;;
11797;SDS011;5956;51.428;6.682;2022-10-16T07:09:58;2.60;;;2.40;;
11797;SDS011;5956;51.428;6.682;2022-10-16T07:12:25;2.10;;;2.00;;
11797;SDS011;5956;51.428;6.682;2022-10-16T07:14:52;5.23;;;2.00;;
11797;SDS011;5956;51.428;6.682;2022-10-16T07:17:19;3.97;;;1.93;;
11797;SDS011;5956;51.428;6.682;2022-10-16T07:19:47;2.40;;;2.20;;
11797;SDS011;5956;51.428;6.682;2022-10-16T07:22:14;3.30;;;2.00;;
11797;SDS011;5956;51.428;6.682;2022-10-16T07:24:42;2.60;;;2.30;;
11797;SDS011;5956;51.428;6.682;2022-10-16T07:27:09;3.50;;;2.10;;
11797;SDS011;5956;51.428;6.682;2022-10-16T07:29:36;2.10;;;2.00;;
11797;SDS011;5956;51.428;6.682;2022-10-16T07:32:03;4.10;;;2.07;;
11797;SDS011;5956;51.428;6.682;2022-10-16T07:34:30;3.70;;;2.13;;
11797;SDS011;5956;51.428;6.682;2022-10-16T07:36:57;2.13;;;1.93;;
11797;SDS011;5956;51.428;6.682;2022-10-16T07:39:23;4.00;;;1.90;;
11797;SDS011;5956;51.428;6.682;2022-10-16T07:41:52;2.73;;;2.07;;
11797;SDS011;5956;51.428;6.682;2022-10-16T07:44:18;2.97;;;2.00;;
11797;SDS011;5956;51.428;6.682;2022-10-16T07:46:45;3.13;;;1.90;;
11797;SDS011;5956;51.428;6.682;2022-10-16T07:49:12;4.20;;;2.27;;
11797;SDS011;5956;51.428;6.682;2022-10-16T07:51:39;2.57;;;1.87;;
11797;SDS011;5956;51.428;6.682;2022-10-16T07:54:07;3.07;;;2.07;;
11797;SDS011;5956;51.428;6.682;2022-10-16T07:56:34;3.57;;;1.80;;
11797;SDS011;5956;51.428;6.682;2022-10-16T07:59:03;2.20;;;1.90;;
11797;SDS011;5956;51.428;6.682;2022-10-16T08:01:29;2.23;;;1.70;;
11797;SDS011;5956;51.428;6.682;2022-10-16T08:03:56;3.20;;;2.20;;
11797;SDS011;5956;51.428;6.682;2022-10-16T08:06:23;4.43;;;2.00;;
11797;SDS011;5956;51.428;6.682;2022-10-16T08:08:50;3.63;;;2.07;;
11797;SDS011;5956;51.428;6.682;2022-10-16T08:11:17;3.07;;;1.80;;
11797;SDS011;5956;51.428;6.682;2022-10-16T08:13:43;2.97;;;1.90;;
11797;SDS011;5956;51.428;6.682;2022-10-16T08:16:12;3.20;;;2.13;;
11797;SDS011;5956;51.428;6.682;2022-10-16T08:18:39;3.90;;;1.83;;
11797;SDS011;5956;51.428;6.682;2022-10-16T08:21:06;2.50;;;2.13;;
11797;SDS011;5956;51.428;6.682;2022-10-16T08:23:34;4.63;;;2.00;;
11797;SDS011;5956;51.428;6.682;2022-10-16T08:26:02;2.03;;;1.83;;
11797;SDS011;5956;51.428;6.682;2022-10-16T08:28:30;35.47;;;4.63;;
11797;SDS011;5956;51.428;6.682;2022-10-16T08:31:04;13.30;;;3.37;;
11797;SDS011;5956;51.428;6.682;2022-10-16T08:33:33;5.30;;;1.60;;
11797;SDS011;5956;51.428;6.682;2022-10-16T08:36:01;4.30;;;1.73;;
11797;SDS011;5956;51.428;6.682;2022-10-16T08:38:28;3.33;;;1.80;;
11797;SDS011;5956;51.428;6.682;2022-10-16T08:40:55;2.13;;;1.50;;
11797;SDS011;5956;51.428;6.682;2022-10-16T08:43:41;3.22;;;1.85;;
11797;SDS011;5956;51.428;6.682;2022-10-16T08:46:18;3.95;;;1.67;;
11797;SDS011;5956;51.428;6.682;2022-10-16T08:48:50;4.22;;;1.40;;
11797;SDS011;5956;51.428;6.682;2022-10-16T08:51:19;4.20;;;2.40;;
11797;SDS011;5956;51.428;6.682;2022-10-16T08:53:49;2.45;;;1.80;;
11797;SDS011;5956;51.428;6.682;2022-10-16T08:56:18;3.22;;;1.50;;
11797;SDS011;5956;51.428;6.682;2022-10-16T08:58:45;3.38;;;1.50;;
11797;SDS011;5956;51.428;6.682;2022-10-16T09:01:13;3.10;;;1.40;;
11797;SDS011;5956;51.428;6.682;2022-10-16T09:03:45;3.67;;;1.42;;
11797;SDS011;5956;51.428;6.682;2022-10-16T09:06:36;1.90;;;1.50;;
11797;SDS011;5956;51.428;6.682;2022-10-16T09:12:04;2.60;;;1.55;;
11797;SDS011;5956;51.428;6.682;2022-10-16T09:14:39;2.25;;;1.40;;
11797;SDS011;5956;51.428;6.682;2022-10-16T09:17:19;1.73;;;1.33;;
11797;SDS011;5956;51.428;6.682;2022-10-16T09:19:53;1.52;;;1.42;;
11797;SDS011;5956;51.428;6.682;2022-10-16T09:22:25;3.38;;;1.30;;
11797;SDS011;5956;51.428;6.682;2022-10-16T09:24:54;0.90;;;0.90;;
11797;SDS011;5956;51.428;6.682;2022-10-16T09:27:21;5.68;;;4.05;;
11797;SDS011;5956;51.428;6.682;2022-10-16T09:29:48;4.93;;;2.28;;
11797;SDS011;5956;51.428;6.682;2022-10-16T09:32:16;4.20;;;1.50;;
11797;SDS011;5956;51.428;6.682;2022-10-16T09:34:45;2.95;;;1.38;;
11797;SDS011;5956;51.428;6.682;2022-10-16T09:37:16;3.08;;;1.20;;
11797;SDS011;5956;51.428;6.682;2022-10-16T09:39:45;2.17;;;1.10;;
11797;SDS011;5956;51.428;6.682;2022-10-16T09:42:15;2.05;;;1.38;;
11797;SDS011;5956;51.428;6.682;2022-10-16T09:44:47;1.33;;;1.20;;
11797;SDS011;5956;51.428;6.682;2022-10-16T09:47:16;2.45;;;1.63;;
11797;SDS011;5956;51.428;6.682;2022-10-16T09:49:50;4.72;;;1.42;;
11797;SDS011;5956;51.428;6.682;2022-10-16T09:52:19;1.63;;;0.98;;
11797;SDS011;5956;51.428;6.682;2022-10-16T09:54:50;1.88;;;1.05;;
11797;SDS011;5956;51.428;6.682;2022-10-16T09:57:20;4.93;;;3.42;;
11797;SDS011;5956;51.428;6.682;2022-10-16T09:59:53;1.60;;;1.25;;
11797;SDS011;5956;51.428;6.682;2022-10-16T10:02:23;3.30;;;1.05;;
11797;SDS011;5956;51.428;6.682;2022-10-16T10:04:55;5.15;;;1.23;;
11797;SDS011;5956;51.428;6.682;2022-10-16T10:07:25;2.10;;;0.98;;
11797;SDS011;5956;51.428;6.682;2022-10-16T10:09:53;3.90;;;1.15;;
11797;SDS011;5956;51.428;6.682;2022-10-16T10:12:21;1.77;;;1.00;;
11797;SDS011;5956;51.428;6.682;2022-10-16T10:14:50;4.30;;;3.88;;
11797;SDS011;5956;51.428;6.682;2022-10-16T10:17:18;5.05;;;1.30;;
11797;SDS011;5956;51.428;6.682;2022-10-16T10:19:47;3.10;;;1.10;;
11797;SDS011;5956;51.428;6.682;2022-10-16T10:22:27;2.20;;;1.15;;
11797;SDS011;5956;51.428;6.682;2022-10-16T10:25:00;1.92;;;1.10;;
11797;SDS011;5956;51.428;6.682;2022-10-16T10:27:38;3.67;;;1.33;;
11797;SDS011;5956;51.428;6.682;2022-10-16T10:30:10;2.70;;;1.08;;
11797;SDS011;5956;51.428;6.682;2022-10-16T10:32:44;1.70;;;1.00;;
11797;SDS011;5956;51.428;6.682;2022-10-16T10:35:17;1.55;;;1.40;;
11797;SDS011;5956;51.428;6.682;2022-10-16T10:37:51;1.70;;;1.05;;
11797;SDS011;5956;51.428;6.682;2022-10-16T10:40:37;2.30;;;1.10;;
11797;SDS011;5956;51.428;6.682;2022-10-16T10:43:12;3.65;;;1.02;;
11797;SDS011;5956;51.428;6.682;2022-10-16T10:45:46;3.28;;;0.82;;
11797;SDS011;5956;51.428;6.682;2022-10-16T10:48:23;2.45;;;1.05;;
11797;SDS011;5956;51.428;6.682;2022-10-16T10:50:57;1.60;;;1.00;;
11797;SDS011;5956;51.428;6.682;2022-10-16T10:53:31;2.08;;;1.25;;
11797;SDS011;5956;51.428;6.682;2022-10-16T10:56:06;1.30;;;0.85;;
11797;SDS011;5956;51.428;6.682;2022-10-16T10:58:50;3.22;;;1.15;;
11797;SDS011;5956;51.428;6.682;2022-10-16T11:01:25;2.00;;;1.20;;
11797;SDS011;5956;51.428;6.682;2022-10-16T11:04:01;1.30;;;1.05;;
11797;SDS011;5956;51.428;6.682;2022-10-16T11:06:39;1.05;;;0.95;;
11797;SDS011;5956;51.428;6.682;2022-10-16T11:09:12;1.02;;;0.80;;
11797;SDS011;5956;51.428;6.682;2022-10-16T11:11:43;0.93;;;0.80;;
11797;SDS011;5956;51.428;6.682;2022-10-16T11:14:14;0.82;;;0.70;;
11797;SDS011;5956;51.428;6.682;2022-10-16T11:16:43;5.40;;;4.85;;
11797;SDS011;5956;51.428;6.682;2022-10-16T11:19:19;2.83;;;1.08;;
11797;SDS011;5956;51.428;6.682;2022-10-16T11:22:00;1.90;;;0.98;;
11797;SDS011;5956;51.428;6.682;2022-10-16T11:24:34;2.42;;;1.38;;
11797;SDS011;5956;51.428;6.682;2022-10-16T11:27:04;1.92;;;1.10;;
11797;SDS011;5956;51.428;6.682;2022-10-16T11:29:35;2.17;;;1.30;;
11797;SDS011;5956;51.428;6.682;2022-10-16T11:32:15;2.47;;;1.00;;
11797;SDS011;5956;51.428;6.682;2022-10-16T11:34:47;2.72;;;1.17;;
11797;SDS011;5956;51.428;6.682;2022-10-16T11:37:17;1.83;;;1.20;;
11797;SDS011;5956;51.428;6.682;2022-10-16T11:39:48;1.98;;;1.05;;
11797;SDS011;5956;51.428;6.682;2022-10-16T11:42:18;2.15;;;0.80;;
11797;SDS011;5956;51.428;6.682;2022-10-16T11:44:50;4.10;;;1.02;;
11797;SDS011;5956;51.428;6.682;2022-10-16T11:47:24;1.38;;;1.27;;
11797;SDS011;5956;51.428;6.682;2022-10-16T11:49:56;1.70;;;1.30;;
11797;SDS011;5956;51.428;6.682;2022-10-16T11:52:28;2.00;;;1.88;;
11797;SDS011;5956;51.428;6.682;2022-10-16T11:55:01;1.63;;;1.00;;
11797;SDS011;5956;51.428;6.682;2022-10-16T11:57:35;1.88;;;1.15;;
11797;SDS011;5956;51.428;6.682;2022-10-16T12:00:08;1.73;;;1.17;;
11797;SDS011;5956;51.428;6.682;2022-10-16T12:02:43;1.48;;;0.95;;
11797;SDS011;5956;51.428;6.682;2022-10-16T12:05:19;1.40;;;0.93;;
11797;SDS011;5956;51.428;6.682;2022-10-16T12:07:54;1.92;;;0.73;;
11797;SDS011;5956;51.428;6.682;2022-10-16T12:10:29;1.52;;;0.85;;
11797;SDS011;5956;51.428;6.682;2022-10-16T12:13:02;2.53;;;1.17;;
11797;SDS011;5956;51.428;6.682;2022-10-16T12:15:31;1.02;;;0.93;;
11797;SDS011;5956;51.428;6.682;2022-10-16T12:17:59;1.58;;;0.70;;
11797;SDS011;5956;51.428;6.682;2022-10-16T12:20:28;1.98;;;0.93;;
11797;SDS011;5956;51.428;6.682;2022-10-16T12:22:58;1.55;;;1.00;;
11797;SDS011;5956;51.428;6.682;2022-10-16T12:25:28;1.73;;;1.00;;
11797;SDS011;5956;51.428;6.682;2022-10-16T12:27:58;2.78;;;0.98;;
11797;SDS011;5956;51.428;6.682;2022-10-16T12:30:27;2.45;;;0.90;;
11797;SDS011;5956;51.428;6.682;2022-10-16T12:32:55;1.85;;;0.95;;
11797;SDS011;5956;51.428;6.682;2022-10-16T12:35:25;1.75;;;1.08;;
11797;SDS011;5956;51.428;6.682;2022-10-16T12:38:03;1.27;;;1.17;;
11797;SDS011;5956;51.428;6.682;2022-10-16T12:40:36;3.28;;;1.00;;
11797;SDS011;5956;51.428;6.682;2022-10-16T12:43:23;1.83;;;1.10;;
11797;SDS011;5956;51.428;6.682;2022-10-16T12:45:59;1.42;;;0.88;;
11797;SDS011;5956;51.428;6.682;2022-10-16T12:48:27;2.38;;;1.23;;
11797;SDS011;5956;51.428;6.682;2022-10-16T12:50:55;3.17;;;1.40;;
11797;SDS011;5956;51.428;6.682;2022-10-16T12:53:23;4.82;;;1.50;;
11797;SDS011;5956;51.428;6.682;2022-10-16T12:56:03;3.40;;;1.13;;
11797;SDS011;5956;51.428;6.682;2022-10-16T12:58:50;2.05;;;1.35;;
11797;SDS011;5956;51.428;6.682;2022-10-16T13:01:25;1.17;;;0.98;;
11797;SDS011;5956;51.428;6.682;2022-10-16T13:04:09;1.20;;;0.90;;
11797;SDS011;5956;51.428;6.682;2022-10-16T13:06:42;2.00;;;1.00;;
11797;SDS011;5956;51.428;6.682;2022-10-16T13:09:26;1.55;;;1.10;;
11797;SDS011;5956;51.428;6.682;2022-10-16T13:12:10;1.85;;;1.20;;
11797;SDS011;5956;51.428;6.682;2022-10-16T13:17:43;2.47;;;1.00;;
11797;SDS011;5956;51.428;6.682;2022-10-16T13:20:16;2.60;;;1.10;;
11797;SDS011;5956;51.428;6.682;2022-10-16T13:22:48;1.85;;;1.20;;
11797;SDS011;5956;51.428;6.682;2022-10-16T13:25:22;1.83;;;1.00;;
11797;SDS011;5956;51.428;6.682;2022-10-16T13:27:56;1.25;;;1.10;;
11797;SDS011;5956;51.428;6.682;2022-10-16T13:30:26;3.63;;;1.45;;
11797;SDS011;5956;51.428;6.682;2022-10-16T13:32:57;3.53;;;1.10;;
11797;SDS011;5956;51.428;6.682;2022-10-16T13:35:26;2.17;;;1.10;;
11797;SDS011;5956;51.428;6.682;2022-10-16T13:38:03;1.70;;;1.08;;
11797;SDS011;5956;51.428;6.682;2022-10-16T13:40:31;3.28;;;1.48;;
11797;SDS011;5956;51.428;6.682;2022-10-16T13:43:01;2.03;;;0.90;;
11797;SDS011;5956;51.428;6.682;2022-10-16T13:45:28;1.48;;;1.10;;
11797;SDS011;5956;51.428;6.682;2022-10-16T13:48:01;1.20;;;0.90;;
11797;SDS011;5956;51.428;6.682;2022-10-16T13:50:29;3.03;;;1.20;;
11797;SDS011;5956;51.428;6.682;2022-10-16T13:53:03;1.45;;;1.10;;
11797;SDS011;5956;51.428;6.682;2022-10-16T13:55:30;1.17;;;1.08;;
11797;SDS011;5956;51.428;6.682;2022-10-16T13:58:05;2.72;;;0.90;;
11797;SDS011;5956;51.428;6.682;2022-10-16T14:00:34;2.10;;;1.33;;
11797;SDS011;5956;51.428;6.682;2022-10-16T14:03:02;1.35;;;0.90;;
11797;SDS011;5956;51.428;6.682;2022-10-16T14:05:30;2.33;;;1.20;;
11797;SDS011;5956;51.428;6.682;2022-10-16T14:07:57;1.90;;;1.27;;
11797;SDS011;5956;51.428;6.682;2022-10-16T14:10:25;2.17;;;1.20;;
11797;SDS011;5956;51.428;6.682;2022-10-16T14:12:58;3.92;;;1.20;;
11797;SDS011;5956;51.428;6.682;2022-10-16T14:15:28;4.32;;;1.67;;
11797;SDS011;5956;51.428;6.682;2022-10-16T14:17:55;2.70;;;1.55;;
11797;SDS011;5956;51.428;6.682;2022-10-16T14:20:24;3.95;;;1.30;;
11797;SDS011;5956;51.428;6.682;2022-10-16T14:23:02;2.75;;;1.00;;
11797;SDS011;5956;51.428;6.682;2022-10-16T14:25:31;3.13;;;1.05;;
11797;SDS011;5956;51.428;6.682;2022-10-16T14:27:59;3.38;;;1.20;;
11797;SDS011;5956;51.428;6.682;2022-10-16T14:30:29;1.95;;;1.20;;
11797;SDS011;5956;51.428;6.682;2022-10-16T14:32:57;1.40;;;0.90;;
11797;SDS011;5956;51.428;6.682;2022-10-16T14:35:25;3.03;;;1.38;;
11797;SDS011;5956;51.428;6.682;2022-10-16T14:37:54;3.35;;;1.25;;
11797;SDS011;5956;51.428;6.682;2022-10-16T14:40:23;3.05;;;1.50;;
11797;SDS011;5956;51.428;6.682;2022-10-16T14:42:51;2.78;;;1.15;;
11797;SDS011;5956;51.428;6.682;2022-10-16T14:45:20;2.33;;;1.17;;
11797;SDS011;5956;51.428;6.682;2022-10-16T14:47:49;1.35;;;1.17;;
11797;SDS011;5956;51.428;6.682;2022-10-16T14:50:18;2.35;;;1.23;;
11797;SDS011;5956;51.428;6.682;2022-10-16T14:52:45;1.58;;;1.10;;
11797;SDS011;5956;51.428;6.682;2022-10-16T14:55:11;1.38;;;1.15;;
11797;SDS011;5956;51.428;6.682;2022-10-16T14:57:38;2.83;;;1.17;;
11797;SDS011;5956;51.428;6.682;2022-10-16T15:00:10;1.75;;;1.20;;
11797;SDS011;5956;51.428;6.682;2022-10-16T15:02:42;2.25;;;0.93;;
11797;SDS011;5956;51.428;6.682;2022-10-16T15:05:12;2.70;;;1.10;;
11797;SDS011;5956;51.428;6.682;2022-10-16T15:07:41;4.35;;;1.50;;
11797;SDS011;5956;51.428;6.682;2022-10-16T15:10:08;4.15;;;1.52;;
11797;SDS011;5956;51.428;6.682;2022-10-16T15:12:37;2.40;;;1.00;;
11797;SDS011;5956;51.428;6.682;2022-10-16T15:18:00;3.05;;;1.20;;
11797;SDS011;5956;51.428;6.682;2022-10-16T15:20:32;2.67;;;1.30;;
11797;SDS011;5956;51.428;6.682;2022-10-16T15:23:03;3.15;;;1.52;;